Huvudsida
METAR-TAF:

METAR-TAF

Flygplatser :

Bari-Paleses flygplats

Bari, Italien

latitud: 41-08N, longitud: 016-47E, höjd: 34 m

Aktuellt väderrapport

Denna rapport gjordes för 33 minuter sedan, klockan 12:20 UTC
Vind 8 kt från nord, varierande mellan nord/nordväst och nordost
Temperatur 11°C
Fuktighet 40%
Tryck 1030 hPa
Sikt 10 km eller mer
Inga moln under 1 500 m eller inga cumulonimbus

METAR: LIBD 221220Z 01008KT 330V050 CAVOK 11/M02 Q1030

Tid: 13:53 (12:53 UTC)

Väderprognos

Denna rapport gjordes för 1 timme och 53 minuter sedan, klockan 11:00 UTC
Prognos gäller från 22 kl. 12 UTC till 23 kl. 12 UTC
Vind 16 kt från nord/nordost
Sikt 10 km eller mer
Spridda moln på en höjd av 4000 ft
Blir
från 22 kl. 16 UTC till 22 kl. 18 UTC
Vind 10 kt från väst/nordväst

TAF: LIBD 221100Z 2212/2312 02016KT 9999 SCT040 BECMG 2216/2218 30010KT

Aktuella väderrapporter och prognoser från 4000 flygplatser (METAR- och TAF-rapporter).

De tillgängliga stationerna syns som gula och röda prickar på kartan.

För musen över prickarna för att se namnen på stationerna.

Klicka sedan för att få väderrapporter och prognoser.

För att ändra kartan: Klicka på de gröna knapparna med ett svart kors på för att zooma in; den gröna knappen med ett streck på för att zooma ut; eller på de gröna pilarna för angränsande kartor.


METAR-TAF: